Time;durP1;ratioP1;P1;durP2;ratioP2;P2;SDS_P1;SDS_P2;PMS_P1;PMS_P2;Temp;Humidity;BMP_temperature;BMP_pressure;BME280_temperature;BME280_humidity;BME280_pressure;Samples;Min_cycle;Max_cycle;Signal;HPM_P1;HPM_P2
2021/08/09 00:00:55;;;;;;;2.15;1.10;;;;;;;23.87;43.85;95670.59;5014129;28;20029;-67
2021/08/09 00:03:20;;;;;;;3.67;1.02;;;;;;;23.91;44.11;95679.56;5012407;28;20710;-67
2021/08/09 00:05:46;;;;;;;1.40;1.20;;;;;;;23.88;43.84;95674.09;5011376;28;20030;-67
2021/08/09 00:08:12;;;;;;;2.35;1.40;;;;;;;23.80;43.90;95667.81;5012402;28;20054;-67
2021/08/09 00:10:37;;;;;;;2.70;1.00;;;;;;;23.83;44.28;95686.88;5012586;28;20049;-68
2021/08/09 00:13:03;;;;;;;2.80;1.20;;;;;;;23.81;44.44;95685.69;5012453;28;20030;-68
2021/08/09 00:15:29;;;;;;;2.13;1.25;;;;;;;23.74;44.54;95680.19;5014041;28;20579;-67
2021/08/09 00:17:55;;;;;;;2.92;1.02;;;;;;;23.65;44.42;95671.56;5011572;28;20128;-67
2021/08/09 00:20:20;;;;;;;2.45;1.13;;;;;;;23.60;44.49;95670.75;5011390;28;20200;-67
2021/08/09 00:22:46;;;;;;;2.03;0.98;;;;;;;23.65;44.67;95680.53;5011819;28;20571;-67
2021/08/09 00:25:12;;;;;;;1.95;1.10;;;;;;;23.59;44.90;95674.59;5012051;28;20022;-66
2021/08/09 00:27:38;;;;;;;8.25;1.23;;;;;;;23.52;44.56;95673.78;5013249;28;20021;-66
2021/08/09 00:30:05;;;;;;;6.13;1.23;;;;;;;23.38;45.00;95668.97;5011679;28;20088;-67
2021/08/09 00:32:31;;;;;;;2.80;1.00;;;;;;;23.40;45.45;95677.53;5011596;28;20030;-67
2021/08/09 00:34:56;;;;;;;2.35;1.25;;;;;;;23.35;45.14;95664.31;5009924;28;20133;-67
2021/08/09 00:37:22;;;;;;;1.10;1.00;;;;;;;23.37;45.31;95664.72;5009499;28;20488;-67
2021/08/09 00:39:47;;;;;;;1.35;1.25;;;;;;;23.38;45.46;95670.91;5013482;28;20056;-67
2021/08/09 00:42:15;;;;;;;2.88;1.20;;;;;;;23.04;45.19;95631.06;5011643;28;20038;-72
2021/08/09 00:44:43;;;;;;;1.60;1.13;;;;;;;23.16;45.57;95657.13;5008103;28;20446;-71
2021/08/09 00:47:09;;;;;;;3.30;1.40;;;;;;;23.13;45.75;95674.16;5011004;28;20400;-70
2021/08/09 00:49:34;;;;;;;4.43;1.33;;;;;;;22.98;45.65;95667.00;5010421;28;20038;-72
2021/08/09 00:52:00;;;;;;;1.70;1.17;;;;;;;22.77;45.93;95643.09;5012918;28;20046;-70
2021/08/09 00:54:26;;;;;;;3.25;1.75;;;;;;;22.77;46.47;95662.88;5025436;28;20044;-72
2021/08/09 00:59:19;;;;;;;2.85;1.60;;;;;;;22.69;46.73;95665.88;4989229;28;20051;-72
2021/08/09 01:01:45;;;;;;;2.65;1.42;;;;;;;22.56;46.69;95654.47;4992233;28;20053;-72
2021/08/09 01:04:11;;;;;;;3.03;1.45;;;;;;;22.54;46.71;95656.78;4991845;28;20023;-72
2021/08/09 01:06:37;;;;;;;2.88;1.55;;;;;;;22.40;46.99;95646.53;4992612;28;20479;-72
2021/08/09 01:09:11;;;;;;;2.55;1.55;;;;;;;22.33;47.06;95653.81;4991430;28;20043;-72
2021/08/09 01:12:07;;;;;;;4.00;1.70;;;;;;;22.25;47.64;95653.69;4991758;28;20039;-72
2021/08/09 01:14:41;;;;;;;4.93;1.88;;;;;;;22.20;47.75;95654.00;4987576;28;20079;-72
2021/08/09 01:17:10;;;;;;;2.30;2.10;;;;;;;21.92;47.89;95619.16;4991095;28;20034;-72
2021/08/09 01:19:39;;;;;;;5.03;1.90;;;;;;;22.11;47.88;95656.22;4991514;28;20041;-72
2021/08/09 01:22:22;;;;;;;2.55;1.88;;;;;;;22.10;47.95;95654.59;4990572;28;20080;-72
2021/08/09 01:25:29;;;;;;;2.88;2.53;;;;;;;22.11;47.95;95671.66;4993647;28;20161;-72
2021/08/09 01:27:58;;;;;;;2.35;2.00;;;;;;;22.15;48.16;95653.53;5006795;28;20199;-72
2021/08/09 01:30:24;;;;;;;3.55;2.28;;;;;;;22.19;48.05;95652.44;4991335;28;20096;-72
2021/08/09 01:32:51;;;;;;;2.65;1.83;;;;;;;22.27;48.00;95650.63;4991763;28;20038;-72
2021/08/09 01:35:17;;;;;;;1.67;1.58;;;;;;;22.47;47.97;95653.97;4990049;28;20393;-72
2021/08/09 01:37:51;;;;;;;2.85;1.70;;;;;;;22.57;47.54;95656.84;4983522;28;20046;-72
2021/08/09 01:40:17;;;;;;;2.80;1.63;;;;;;;22.68;47.57;95653.47;4990937;28;20030;-72
2021/08/09 01:42:44;;;;;;;1.60;1.33;;;;;;;22.76;47.20;95661.31;4992953;28;20018;-72
2021/08/09 01:45:12;;;;;;;3.63;1.15;;;;;;;22.81;47.27;95650.13;4973457;28;20084;-73
2021/08/09 01:47:40;;;;;;;2.70;1.63;;;;;;;22.90;47.21;95649.88;4990875;28;20103;-73
2021/08/09 01:50:08;;;;;;;2.45;1.10;;;;;;;23.04;46.85;95665.56;4990267;28;20514;-72
2021/08/09 01:52:34;;;;;;;3.38;1.10;;;;;;;23.06;46.61;95642.31;4965857;28;20491;-73
2021/08/09 01:55:00;;;;;;;2.60;1.02;;;;;;;23.12;46.25;95634.59;4991504;28;20468;-73
2021/08/09 01:57:27;;;;;;;1.20;1.10;;;;;;;23.29;46.33;95646.81;4989561;28;20171;-72
2021/08/09 01:59:53;;;;;;;2.47;1.30;;;;;;;23.39;45.85;95653.47;4991188;28;20045;-72
2021/08/09 02:02:29;;;;;;;1.77;1.00;;;;;;;23.33;45.79;95642.94;4990878;28;20079;-73
2021/08/09 02:04:55;;;;;;;3.25;1.25;;;;;;;23.34;45.75;95636.41;4990604;28;20121;-73
2021/08/09 02:07:20;;;;;;;2.67;1.20;;;;;;;23.45;45.74;95652.78;4982812;28;20054;-72
2021/08/09 02:09:46;;;;;;;2.28;1.02;;;;;;;23.43;45.33;95646.91;4991927;28;20535;-73
2021/08/09 02:12:13;;;;;;;3.17;1.20;;;;;;;23.35;45.61;95640.66;4988555;28;20079;-72
2021/08/09 02:14:46;;;;;;;2.88;1.15;;;;;;;23.33;45.26;95637.53;4990846;28;20093;-72
2021/08/09 02:17:17;;;;;;;4.00;1.67;;;;;;;23.21;45.52;95640.53;4990292;28;20105;-74
2021/08/09 02:19:53;;;;;;;1.83;1.20;;;;;;;23.04;45.39;95643.84;4990648;28;20186;-72
2021/08/09 02:22:27;;;;;;;3.35;1.05;;;;;;;22.87;45.72;95641.66;4983641;28;20030;-73
2021/08/09 02:25:01;;;;;;;2.17;1.52;;;;;;;22.70;46.03;95651.16;4992368;28;20037;-73
2021/08/09 02:27:37;;;;;;;2.60;1.20;;;;;;;22.58;46.16;95642.13;4989718;28;20030;-72
2021/08/09 02:30:03;;;;;;;4.72;1.58;;;;;;;22.58;46.52;95654.91;4990466;28;20042;-73
2021/08/09 02:32:31;;;;;;;2.42;1.48;;;;;;;22.53;46.97;95649.81;4990120;28;20038;-73
2021/08/09 02:34:58;;;;;;;1.60;1.50;;;;;;;22.45;46.64;95648.16;4989409;28;20438;-73
2021/08/09 02:37:25;;;;;;;2.15;1.40;;;;;;;22.48;46.93;95655.56;4983726;28;20043;-73
2021/08/09 02:39:52;;;;;;;3.80;1.75;;;;;;;22.43;47.19;95651.22;5006991;28;20030;-73
2021/08/09 02:42:17;;;;;;;2.60;1.55;;;;;;;22.46;46.92;95655.91;4990083;28;20031;-73
2021/08/09 02:44:43;;;;;;;2.20;1.48;;;;;;;22.48;46.79;95645.50;4989864;28;20045;-73
2021/08/09 02:47:12;;;;;;;3.35;1.33;;;;;;;22.45;47.16;95642.72;4989549;28;20177;-73
2021/08/09 02:49:41;;;;;;;7.38;1.20;;;;;;;22.56;47.13;95647.13;4990029;28;20045;-73
2021/08/09 02:52:07;;;;;;;1.52;1.05;;;;;;;22.59;46.70;95637.47;4984298;28;20026;-74
2021/08/09 02:54:34;;;;;;;2.63;1.42;;;;;;;22.57;46.60;95627.03;4991826;28;20022;-73
2021/08/09 02:57:01;;;;;;;3.83;1.60;;;;;;;22.66;46.73;95624.00;4971979;28;20034;-71
2021/08/09 02:59:27;;;;;;;2.70;1.35;;;;;;;22.76;46.65;95636.91;4972484;28;20594;-73
2021/08/09 03:01:53;;;;;;;1.48;1.00;;;;;;;22.89;46.32;95640.19;4988471;28;20034;-72
2021/08/09 03:04:21;;;;;;;1.70;1.20;;;;;;;22.78;46.16;95610.22;4990024;28;20034;-73
2021/08/09 03:06:46;;;;;;;2.40;0.90;;;;;;;23.06;45.89;95642.31;4986273;28;20031;-73
2021/08/09 03:09:12;;;;;;;1.83;1.05;;;;;;;23.13;45.79;95638.88;5004792;28;20034;-72
2021/08/09 03:11:41;;;;;;;4.32;1.10;;;;;;;23.28;45.15;95651.44;4990011;28;20054;-73
2021/08/09 03:14:07;;;;;;;2.35;1.35;;;;;;;23.03;45.00;95626.78;4989539;28;20046;-73
2021/08/09 03:16:35;;;;;;;1.05;0.95;;;;;;;23.19;45.02;95640.13;4989321;28;20042;-73
2021/08/09 03:19:00;;;;;;;1.90;1.13;;;;;;;23.32;45.23;95654.19;4991273;28;20411;-73
2021/08/09 03:21:26;;;;;;;2.13;1.13;;;;;;;23.48;45.14;95653.94;4985184;28;20126;-72
2021/08/09 03:23:51;;;;;;;5.07;1.63;;;;;;;23.60;44.50;95662.59;4989482;28;20629;-72
2021/08/09 03:26:17;;;;;;;1.75;1.30;;;;;;;23.57;44.47;95646.28;4989335;28;20030;-73
2021/08/09 03:28:42;;;;;;;2.03;1.10;;;;;;;23.55;44.67;95643.16;4988435;28;20038;-73
2021/08/09 03:31:07;;;;;;;1.10;1.00;;;;;;;23.66;44.25;95660.34;4989432;28;20408;-72
2021/08/09 03:33:33;;;;;;;2.28;1.20;;;;;;;23.79;44.47;95671.69;4991485;28;20029;-72
2021/08/09 03:35:59;;;;;;;2.75;1.13;;;;;;;23.80;44.67;95673.25;4986662;28;20085;-72
2021/08/09 03:38:24;;;;;;;4.20;1.05;;;;;;;23.78;44.48;95678.28;4988078;28;20054;-74
2021/08/09 03:40:50;;;;;;;2.72;1.15;;;;;;;23.64;44.37;95661.88;4989742;28;20049;-73
2021/08/09 03:43:15;;;;;;;1.38;1.10;;;;;;;23.62;44.41;95662.22;4988315;28;20037;-73
2021/08/09 03:45:40;;;;;;;1.75;0.90;;;;;;;23.68;44.63;95674.31;4991134;28;20061;-73
2021/08/09 03:48:10;;;;;;;2.30;1.38;;;;;;;23.60;44.45;95664.53;4989438;28;20129;-73
2021/08/09 03:50:35;;;;;;;2.50;1.30;;;;;;;23.56;44.89;95677.31;4972149;28;20046;-73
2021/08/09 03:53:01;;;;;;;2.97;1.40;;;;;;;23.52;44.87;95673.78;4986034;28;20179;-73
2021/08/09 03:55:26;;;;;;;1.52;1.17;;;;;;;23.41;44.77;95668.25;4989493;28;20077;-72
2021/08/09 03:57:51;;;;;;;1.63;1.40;;;;;;;23.34;45.50;95673.63;4990709;28;20468;-73
2021/08/09 04:00:17;;;;;;;5.80;1.55;;;;;;;23.26;45.08;95661.91;4972004;28;20042;-73
2021/08/09 04:02:42;;;;;;;4.95;1.42;;;;;;;23.17;45.21;95655.97;4989386;28;20062;-73
2021/08/09 04:05:11;;;;;;;4.40;1.10;;;;;;;23.06;45.10;95650.44;4988154;28;20046;-73
2021/08/09 04:07:37;;;;;;;2.15;1.30;;;;;;;22.99;45.47;95663.94;4985765;28;20038;-73
2021/08/09 04:10:04;;;;;;;2.80;1.30;;;;;;;22.57;46.21;95646.00;4987984;28;20026;-73
2021/08/09 04:12:30;;;;;;;2.78;1.27;;;;;;;22.49;46.30;95648.97;4989824;28;20396;-73
2021/08/09 04:14:55;;;;;;;1.60;1.50;;;;;;;22.64;46.40;95664.28;4989572;28;20042;-73
2021/08/09 04:17:21;;;;;;;2.53;1.33;;;;;;;22.54;46.39;95654.84;4988904;28;20035;-73
2021/08/09 04:19:46;;;;;;;1.30;1.13;;;;;;;22.58;46.37;95661.09;4987608;28;20045;-73
2021/08/09 04:22:11;;;;;;;2.55;1.75;;;;;;;22.66;46.23;95672.03;4986635;28;20061;-74
2021/08/09 04:24:37;;;;;;;4.88;1.75;;;;;;;22.60;46.46;95665.38;4992456;28;20014;-73
2021/08/09 04:27:02;;;;;;;1.45;1.35;;;;;;;22.58;46.09;95663.81;4992191;28;20030;-73
2021/08/09 04:29:28;;;;;;;2.00;1.30;;;;;;;22.64;46.62;95672.41;4991065;28;20584;-74
2021/08/09 04:31:53;;;;;;;2.60;1.65;;;;;;;22.67;46.40;95679.00;4992322;28;20401;-73
2021/08/09 04:34:18;;;;;;;1.90;1.42;;;;;;;22.50;46.94;95648.59;4992301;28;20018;-73
2021/08/09 04:36:44;;;;;;;2.03;1.30;;;;;;;22.78;46.63;95680.72;4991902;28;20464;-73
2021/08/09 04:39:09;;;;;;;5.75;1.58;;;;;;;22.88;46.78;95678.50;4992287;28;20042;-73
2021/08/09 04:41:35;;;;;;;3.40;1.92;;;;;;;22.71;46.60;95639.94;4992613;28;20050;-73
2021/08/09 04:44:00;;;;;;;3.80;1.33;;;;;;;22.91;46.04;95661.50;4992524;28;20035;-73
2021/08/09 04:46:26;;;;;;;1.73;1.30;;;;;;;23.00;45.98;95675.56;4992145;28;20044;-73
2021/08/09 04:48:51;;;;;;;1.88;1.65;;;;;;;22.88;46.55;95659.50;4994352;28;20026;-73
2021/08/09 04:51:17;;;;;;;2.17;1.60;;;;;;;23.05;46.39;95672.53;4990613;28;20125;-74
2021/08/09 04:53:43;;;;;;;2.13;1.20;;;;;;;23.07;46.32;95665.56;4992239;28;20113;-73
2021/08/09 04:56:08;;;;;;;3.55;1.92;;;;;;;23.23;46.13;95662.63;4990534;28;20510;-73
2021/08/09 04:58:34;;;;;;;1.95;1.27;;;;;;;23.38;45.72;95662.78;4990809;28;20046;-73
2021/08/09 05:00:59;;;;;;;1.48;1.00;;;;;;;23.55;45.27;95667.59;4994172;28;20648;-73
2021/08/09 05:03:25;;;;;;;1.63;1.50;;;;;;;23.70;45.28;95671.22;4990994;28;20100;-73
2021/08/09 05:05:50;;;;;;;2.95;1.42;;;;;;;23.97;44.72;95683.50;4974269;28;20045;-74
2021/08/09 05:08:16;;;;;;;3.15;1.30;;;;;;;24.16;43.91;95660.72;4991206;28;20054;-73
2021/08/09 05:10:41;;;;;;;3.60;1.23;;;;;;;24.52;43.27;95685.44;4992209;28;20042;-73
2021/08/09 05:13:07;;;;;;;1.58;0.98;;;;;;;24.77;42.90;95693.69;4991814;28;20026;-77
2021/08/09 05:15:34;;;;;;;4.05;1.27;;;;;;;24.86;42.03;95677.81;4994389;28;20030;-73
2021/08/09 05:18:00;;;;;;;1.52;1.17;;;;;;;25.10;41.63;95681.81;4991681;28;20027;-73
2021/08/09 05:20:25;;;;;;;3.85;1.23;;;;;;;25.44;40.86;95697.81;4991716;28;20520;-72
2021/08/09 05:22:51;;;;;;;2.13;1.30;;;;;;;25.62;41.11;95682.31;4984819;28;20038;-72
2021/08/09 05:25:16;;;;;;;4.85;1.10;;;;;;;25.74;40.52;95675.69;4991035;28;20417;-71
2021/08/09 05:27:42;;;;;;;1.15;0.90;;;;;;;26.12;39.97;95676.88;4992938;28;20106;-71
2021/08/09 05:30:10;;;;;;;1.42;1.00;;;;;;;26.48;39.64;95685.03;4991228;28;20034;-72
2021/08/09 05:32:37;;;;;;;1.92;0.75;;;;;;;26.61;39.35;95681.47;4991011;28;20042;-72
2021/08/09 05:35:04;;;;;;;4.20;1.05;;;;;;;26.78;38.71;95692.75;4970523;28;20061;-71
2021/08/09 05:37:34;;;;;;;4.43;0.93;;;;;;;26.72;38.90;95700.56;4989479;28;20496;-71
2021/08/09 05:40:00;;;;;;;1.92;1.10;;;;;;;26.52;38.63;95661.25;4992948;28;20045;-70
2021/08/09 05:42:26;;;;;;;1.42;1.20;;;;;;;26.55;38.91;95674.88;4991034;28;20492;-70
2021/08/09 05:44:52;;;;;;;2.00;1.00;;;;;;;26.66;38.99;95697.44;4990889;28;20054;-73
2021/08/09 05:47:17;;;;;;;1.35;1.20;;;;;;;26.52;38.93;95686.59;4973190;28;20034;-71
2021/08/09 05:49:42;;;;;;;1.75;1.20;;;;;;;26.33;39.33;95657.75;4990403;28;20034;-71
2021/08/09 05:52:18;;;;;;;2.70;1.20;;;;;;;26.51;39.39;95692.41;4983823;28;20033;-71
2021/08/09 05:54:43;;;;;;;3.20;0.93;;;;;;;26.39;39.95;95675.28;4991555;28;20113;-70
2021/08/09 05:57:08;;;;;;;1.60;1.25;;;;;;;26.38;39.59;95681.91;4990456;28;20121;-71
2021/08/09 05:59:34;;;;;;;5.85;1.30;;;;;;;26.41;40.03;95674.88;4990756;28;20412;-71
2021/08/09 06:01:59;;;;;;;1.48;0.93;;;;;;;26.55;39.95;95674.09;4990977;28;20054;-70
2021/08/09 06:04:24;;;;;;;1.25;1.05;;;;;;;26.84;39.24;95675.56;4991302;28;20117;-74
2021/08/09 06:06:50;;;;;;;2.08;0.82;;;;;;;27.26;38.50;95687.47;4988661;28;20045;-71
2021/08/09 06:09:15;;;;;;;2.97;1.15;;;;;;;27.72;37.75;95694.63;4987822;28;20053;-71
2021/08/09 06:11:42;;;;;;;3.58;0.82;;;;;;;27.99;37.11;95686.63;4989493;28;20057;-71
2021/08/09 06:14:07;;;;;;;1.70;1.00;;;;;;;28.10;36.86;95676.38;4990762;28;20050;-71
2021/08/09 06:16:33;;;;;;;3.70;1.08;;;;;;;28.01;36.95;95672.56;4990005;28;20031;-71
2021/08/09 06:18:58;;;;;;;1.95;1.20;;;;;;;28.02;36.60;95671.38;4992458;28;20392;-70
2021/08/09 06:21:23;;;;;;;3.33;1.10;;;;;;;27.83;36.78;95650.81;4989434;28;20058;-76
2021/08/09 06:23:49;;;;;;;1.75;0.95;;;;;;;28.02;36.60;95677.63;4984669;28;20049;-82
2021/08/09 06:26:14;;;;;;;2.22;1.05;;;;;;;27.91;36.83;95680.44;4992320;28;20043;-81
2021/08/09 06:28:39;;;;;;;4.22;1.00;;;;;;;27.65;36.93;95686.47;4992251;28;20121;-81
2021/08/09 06:31:13;;;;;;;1.40;1.23;;;;;;;27.09;37.13;95685.63;4975091;28;20385;-79
2021/08/09 06:33:38;;;;;;;3.47;0.90;;;;;;;27.09;37.99;95682.91;4994027;28;20110;-75
2021/08/09 06:36:04;;;;;;;1.73;1.02;;;;;;;27.03;37.91;95670.81;4972574;28;20683;-78
2021/08/09 06:38:29;;;;;;;4.13;1.02;;;;;;;26.46;37.77;95665.53;4989157;28;20401;-73
2021/08/09 06:40:55;;;;;;;3.28;1.08;;;;;;;25.41;39.04;95688.50;4972968;28;20065;-71
2021/08/09 06:43:21;;;;;;;2.25;1.00;;;;;;;25.98;39.59;95704.94;4990536;28;20018;-71
2021/08/09 06:45:46;;;;;;;2.35;1.38;;;;;;;26.56;38.75;95708.38;4991741;28;20045;-74
2021/08/09 06:48:12;;;;;;;1.98;1.13;;;;;;;26.64;38.35;95694.34;4989448;28;20100;-78
2021/08/09 06:50:39;;;;;;;2.35;1.15;;;;;;;25.57;39.89;95705.25;4972764;28;20414;-78
2021/08/09 06:53:05;;;;;;;1.73;1.20;;;;;;;26.24;38.79;95689.31;4984837;28;20527;-71
2021/08/09 06:55:30;;;;;;;4.25;1.25;;;;;;;26.25;37.86;95694.38;4990312;28;20038;-76
2021/08/09 06:57:55;;;;;;;3.00;1.13;;;;;;;26.46;37.32;95695.53;4992125;28;20451;-72
2021/08/09 07:00:21;;;;;;;3.75;1.15;;;;;;;26.39;38.04;95683.44;4988422;28;20065;-72
2021/08/09 07:02:46;;;;;;;3.28;1.30;;;;;;;26.37;37.40;95676.84;4989580;28;20803;-69
2021/08/09 07:05:11;;;;;;;2.38;1.40;;;;;;;26.37;35.20;95679.59;4990144;28;20030;-77
2021/08/09 07:07:38;;;;;;;3.95;1.52;;;;;;;26.57;35.20;95674.50;4985111;28;20093;-72
2021/08/09 07:10:05;;;;;;;5.55;1.40;;;;;;;26.65;36.35;95687.69;4988702;28;20030;-74
2021/08/09 07:12:30;;;;;;;3.08;1.25;;;;;;;26.98;36.46;95688.38;4991945;28;20022;-76
2021/08/09 07:14:57;;;;;;;2.53;1.10;;;;;;;27.16;35.62;95677.38;4988409;28;20497;-73
2021/08/09 07:17:22;;;;;;;5.18;1.40;;;;;;;26.73;35.90;95682.25;4989591;28;20030;-72
2021/08/09 07:19:47;;;;;;;3.22;1.40;;;;;;;26.98;35.39;95687.59;4989933;28;20048;-73
2021/08/09 07:22:13;;;;;;;5.05;1.33;;;;;;;26.69;36.06;95688.47;4985995;28;20114;-72
2021/08/09 07:24:38;;;;;;;2.65;1.13;;;;;;;27.14;35.62;95680.53;4991538;28;20465;-71
2021/08/09 07:27:04;;;;;;;1.67;1.10;;;;;;;27.34;35.30;95682.78;4989475;28;20037;-71
2021/08/09 07:29:31;;;;;;;2.38;1.30;;;;;;;25.59;37.04;95705.66;4989836;28;20042;-70
2021/08/09 07:31:57;;;;;;;2.47;1.50;;;;;;;25.91;36.62;95703.00;4989585;28;20149;-72
2021/08/09 07:34:22;;;;;;;5.10;1.10;;;;;;;24.93;38.57;95691.47;4989196;28;20141;-72
2021/08/09 07:36:48;;;;;;;1.83;1.00;;;;;;;26.05;36.65;95683.13;4990604;28;20109;-72
2021/08/09 07:39:13;;;;;;;2.65;1.25;;;;;;;26.75;35.70;95679.88;4986408;28;20368;-75
2021/08/09 07:41:39;;;;;;;2.63;1.25;;;;;;;26.72;35.59;95683.38;4988734;28;20045;-76
2021/08/09 07:44:04;;;;;;;2.28;1.27;;;;;;;27.12;34.47;95666.47;4988065;28;20053;-75
2021/08/09 07:46:30;;;;;;;2.13;1.20;;;;;;;27.27;34.61;95648.06;4987489;28;20050;-75
2021/08/09 07:48:56;;;;;;;1.75;1.15;;;;;;;27.32;34.37;95619.56;4991567;28;20034;-74
2021/08/09 07:51:21;;;;;;;2.92;1.25;;;;;;;27.61;34.17;95652.91;4987711;28;20034;-74
2021/08/09 07:53:47;;;;;;;6.35;1.30;;;;;;;26.93;35.17;95686.06;4972780;28;20042;-76
2021/08/09 07:56:13;;;;;;;3.75;1.42;;;;;;;26.69;35.00;95633.13;4989217;28;20035;-73
2021/08/09 07:58:39;;;;;;;5.43;1.67;;;;;;;27.45;34.27;95683.47;4972338;28;20042;-76
2021/08/09 08:01:04;;;;;;;3.90;1.40;;;;;;;27.54;33.92;95669.34;4976251;28;20023;-76
2021/08/09 08:03:30;;;;;;;2.53;1.40;;;;;;;27.86;33.77;95697.28;4996597;28;20022;-79
2021/08/09 08:05:55;;;;;;;4.95;1.20;;;;;;;28.13;33.66;95675.56;4993542;28;20034;-76
2021/08/09 08:08:20;;;;;;;3.15;1.27;;;;;;;27.63;33.92;95686.06;4991227;28;20041;-71
2021/08/09 08:10:46;;;;;;;3.92;1.60;;;;;;;26.86;34.98;95666.97;4976027;28;20072;-71
2021/08/09 08:13:11;;;;;;;2.38;1.77;;;;;;;27.33;34.31;95683.94;4992663;28;20080;-70
2021/08/09 08:15:37;;;;;;;2.53;1.35;;;;;;;27.73;33.88;95693.47;4994310;28;20018;-70
2021/08/09 08:18:02;;;;;;;3.85;1.90;;;;;;;27.86;32.84;95686.34;4992210;28;20081;-70
2021/08/09 08:20:28;;;;;;;3.50;1.50;;;;;;;27.71;34.58;95688.41;4991245;28;20039;-70
2021/08/09 08:22:54;;;;;;;5.25;1.55;;;;;;;27.92;33.79;95668.31;4991034;28;20046;-70
2021/08/09 08:25:20;;;;;;;2.53;1.58;;;;;;;28.35;33.28;95683.59;4992743;28;20054;-70
2021/08/09 08:27:45;;;;;;;4.85;1.65;;;;;;;28.12;33.20;95649.41;4994266;28;20065;-70
2021/08/09 08:30:12;;;;;;;5.32;2.00;;;;;;;28.22;33.46;95656.72;4992758;28;20038;-71
2021/08/09 08:32:37;;;;;;;5.00;1.85;;;;;;;28.54;32.50;95671.28;4992653;28;20441;-71
2021/08/09 08:35:03;;;;;;;2.88;1.60;;;;;;;28.51;32.17;95681.09;4991577;28;20129;-70
2021/08/09 08:37:29;;;;;;;4.50;1.58;;;;;;;28.24;33.17;95654.34;4990650;28;20046;-70
2021/08/09 08:39:54;;;;;;;4.07;2.00;;;;;;;28.63;32.28;95641.47;4994150;28;20048;-71
2021/08/09 08:42:20;;;;;;;4.07;1.90;;;;;;;29.13;32.45;95654.56;4992470;28;20479;-71
2021/08/09 08:44:46;;;;;;;3.13;1.30;;;;;;;29.61;31.50;95686.41;4992068;28;20043;-71
2021/08/09 08:47:20;;;;;;;6.85;1.67;;;;;;;29.16;31.60;95665.47;4991673;28;20063;-70
2021/08/09 08:49:48;;;;;;;4.22;1.50;;;;;;;29.13;30.72;95684.72;4992291;28;20125;-71
2021/08/09 08:52:14;;;;;;;2.45;1.50;;;;;;;28.99;31.21;95658.28;4990831;28;20033;-71
2021/08/09 08:54:40;;;;;;;3.13;1.58;;;;;;;29.24;30.69;95699.81;4993721;28;20026;-70
2021/08/09 08:57:15;;;;;;;4.78;1.50;;;;;;;28.96;29.98;95687.22;4974257;28;20085;-71
2021/08/09 08:59:41;;;;;;;3.13;1.27;;;;;;;28.64;31.60;95689.53;4991413;28;20397;-71
2021/08/09 09:02:06;;;;;;;3.15;1.80;;;;;;;29.05;31.07;95688.72;4992086;28;20048;-71
2021/08/09 09:04:32;;;;;;;3.65;1.40;;;;;;;29.44;31.14;95686.22;4990112;28;20050;-70
2021/08/09 09:07:08;;;;;;;5.57;1.90;;;;;;;29.54;30.11;95681.81;4993191;28;20065;-71
2021/08/09 09:09:38;;;;;;;4.13;1.80;;;;;;;28.94;30.88;95702.53;4982846;28;20104;-71
2021/08/09 09:12:15;;;;;;;3.13;1.70;;;;;;;28.99;30.57;95691.13;4990808;28;20043;-71
2021/08/09 09:14:41;;;;;;;2.13;1.73;;;;;;;29.34;31.16;95700.84;4991280;28;20046;-71
2021/08/09 09:17:06;;;;;;;4.32;1.17;;;;;;;29.60;30.29;95690.34;4991062;28;20050;-71
2021/08/09 09:19:47;;;;;;;2.63;1.50;;;;;;;29.99;29.37;95685.03;4991204;28;20592;-72
2021/08/09 09:22:18;;;;;;;1.77;1.27;;;;;;;30.49;30.25;95695.16;4988833;28;20027;-71
2021/08/09 09:24:51;;;;;;;3.20;1.33;;;;;;;30.68;28.75;95690.91;4986441;28;20169;-70
2021/08/09 09:27:31;;;;;;;3.08;1.40;;;;;;;30.75;28.97;95701.00;4990884;28;20088;-71
2021/08/09 09:29:58;;;;;;;4.45;1.50;;;;;;;30.06;29.98;95692.38;4990701;28;20046;-70
2021/08/09 09:32:25;;;;;;;4.20;1.77;;;;;;;30.21;29.90;95695.69;4990860;28;20050;-70
2021/08/09 09:34:56;;;;;;;2.92;1.30;;;;;;;30.86;29.45;95698.81;4991011;28;20042;-70
2021/08/09 09:37:29;;;;;;;2.22;1.48;;;;;;;29.71;30.16;95699.97;4989306;28;20033;-71
2021/08/09 09:40:11;;;;;;;5.07;1.30;;;;;;;30.25;29.91;95702.66;4987662;28;20092;-70
2021/08/09 09:42:39;;;;;;;1.90;1.20;;;;;;;30.36;28.82;95672.28;4991290;28;20038;-70
2021/08/09 09:45:27;;;;;;;1.65;1.23;;;;;;;30.08;29.28;95698.19;4987920;28;20101;-70
2021/08/09 09:48:13;;;;;;;1.83;1.25;;;;;;;29.53;29.49;95713.09;4990853;28;20038;-71
2021/08/09 09:50:41;;;;;;;3.25;1.20;;;;;;;28.93;30.73;95681.78;4990967;28;20038;-70
2021/08/09 09:53:17;;;;;;;3.00;1.50;;;;;;;29.84;30.08;95700.16;4980497;28;20053;-71
2021/08/09 09:55:44;;;;;;;2.35;1.38;;;;;;;29.63;29.96;95698.50;4982877;28;20042;-70
2021/08/09 09:58:10;;;;;;;3.63;1.65;;;;;;;30.01;29.91;95703.81;4990686;28;20034;-78
2021/08/09 10:00:37;;;;;;;3.33;1.13;;;;;;;30.04;29.22;95681.00;4993375;28;20022;-78
2021/08/09 10:03:03;;;;;;;2.97;1.45;;;;;;;30.39;28.69;95685.16;4988703;28;20038;-67
2021/08/09 10:05:30;;;;;;;2.55;1.33;;;;;;;30.51;28.85;95692.78;4991474;28;20042;-77
2021/08/09 10:07:58;;;;;;;4.72;1.38;;;;;;;30.80;28.33;95695.78;4986382;28;20081;-75
2021/08/09 10:10:25;;;;;;;2.47;1.52;;;;;;;30.55;28.88;95676.22;4989248;28;20039;-76
2021/08/09 10:12:51;;;;;;;5.50;1.70;;;;;;;30.73;29.37;95667.69;4991509;28;20504;-68
2021/08/09 10:15:19;;;;;;;3.60;1.67;;;;;;;30.97;27.89;95684.88;4990421;28;20042;-69
2021/08/09 10:17:46;;;;;;;2.40;1.42;;;;;;;31.50;27.10;95677.50;4989274;28;20049;-67
2021/08/09 10:20:15;;;;;;;1.95;1.52;;;;;;;32.02;27.07;95679.44;4988939;28;20527;-69
2021/08/09 10:22:40;;;;;;;4.72;3.28;;;;;;;32.35;26.25;95677.44;4988716;28;20077;-73
2021/08/09 10:25:06;;;;;;;4.97;1.50;;;;;;;32.17;26.77;95683.38;4986158;28;20058;-74
2021/08/09 10:27:47;;;;;;;3.33;1.30;;;;;;;32.51;25.74;95665.63;4991792;28;20022;-74
2021/08/09 10:30:13;;;;;;;2.47;1.40;;;;;;;32.23;25.23;95687.16;4990598;28;20082;-72
2021/08/09 10:32:44;;;;;;;3.05;1.38;;;;;;;32.03;25.82;95681.75;4990638;28;20308;-73
2021/08/09 10:35:39;;;;;;;1.98;1.10;;;;;;;30.97;27.45;95682.91;4990544;28;20042;-73
2021/08/09 10:38:16;;;;;;;2.53;1.40;;;;;;;31.66;26.45;95673.97;4977463;28;20400;-73
2021/08/09 10:40:42;;;;;;;5.13;1.38;;;;;;;32.26;26.16;95655.25;4975390;28;20047;-74
2021/08/09 10:43:08;;;;;;;3.15;1.50;;;;;;;32.56;24.82;95662.34;4990858;28;20037;-81
2021/08/09 10:45:43;;;;;;;4.35;1.42;;;;;;;32.62;25.63;95670.84;4992066;28;20022;-74
2021/08/09 10:48:09;;;;;;;6.15;1.70;;;;;;;32.28;25.14;95666.59;4991604;28;20096;-75
2021/08/09 10:50:39;;;;;;;1.70;1.35;;;;;;;32.58;24.05;95671.72;4990541;28;20045;-75
2021/08/09 10:53:28;;;;;;;1.00;0.90;;;;;;;32.63;25.48;95666.88;4968816;28;20538;-74
2021/08/09 10:55:58;;;;;;;2.00;1.33;;;;;;;32.84;24.87;95661.53;4989459;28;20050;-75
2021/08/09 10:58:51;;;;;;;2.95;1.58;;;;;;;31.67;26.23;95678.28;4988925;28;20050;-76
2021/08/09 11:01:19;;;;;;;1.52;1.23;;;;;;;32.05;25.07;95679.34;4990361;28;20084;-75
2021/08/09 11:04:03;;;;;;;4.15;1.50;;;;;;;32.41;24.54;95672.19;4974436;28;20454;-75
2021/08/09 11:06:38;;;;;;;3.70;1.35;;;;;;;32.37;24.82;95680.53;4972844;28;20105;-76
2021/08/09 11:09:35;;;;;;;3.47;1.30;;;;;;;31.99;25.30;95677.53;4986119;28;20129;-75
2021/08/09 11:12:26;;;;;;;2.08;1.00;;;;;;;32.27;25.01;95667.78;4989983;28;20060;-76
2021/08/09 11:14:58;;;;;;;2.55;1.40;;;;;;;30.97;25.78;95676.63;4989972;28;20089;-75
2021/08/09 11:17:23;;;;;;;;;;;;;;;31.63;25.05;95674.81;4988598;28;20041;-75
2021/08/09 11:19:49;;;;;;;2.03;1.00;;;;;;;31.99;25.26;95674.78;4989886;28;19949;-76
2021/08/09 11:22:20;;;;;;;1.30;0.90;;;;;;;31.87;25.18;95670.75;4990142;28;20026;-76
2021/08/09 11:24:45;;;;;;;;;;;;;;;32.05;26.30;95673.84;4988847;28;20593;-77
2021/08/09 11:27:11;;;;;;;2.85;1.30;;;;;;;32.09;25.22;95662.72;4989496;28;19922;-75
2021/08/09 11:29:57;;;;;;;2.35;1.38;;;;;;;32.07;25.25;95667.91;4989903;28;20038;-76
2021/08/09 11:32:42;;;;;;;2.60;1.13;;;;;;;31.44;26.12;95665.44;4989807;28;20042;-74
2021/08/09 11:35:11;;;;;;;2.47;1.20;;;;;;;31.12;25.71;95666.09;4987889;28;20492;-75
2021/08/09 11:37:58;;;;;;;1.83;0.93;;;;;;;31.29;25.89;95662.25;4988159;28;20039;-76
2021/08/09 11:40:34;;;;;;;3.97;1.33;;;;;;;31.61;25.33;95666.25;4988302;28;20039;-75